createdAt,value
2017-12-16T00:00:32.344Z,19.42
2017-12-16T00:01:32.337Z,19.08
2017-12-16T00:02:32.311Z,20.78
2017-12-16T00:03:32.298Z,20.58
2017-12-16T00:04:32.293Z,19.52
2017-12-16T00:05:32.290Z,19.06
2017-12-16T00:06:32.274Z,18.57
2017-12-16T00:07:32.266Z,20.22
2017-12-16T00:08:32.256Z,20.09
2017-12-16T00:09:32.243Z,20.73
2017-12-16T00:10:32.229Z,20.57
2017-12-16T00:11:32.748Z,20.34
2017-12-16T00:12:32.212Z,18.79
2017-12-16T00:13:32.204Z,17.52
2017-12-16T00:14:32.195Z,16.14
2017-12-16T00:15:32.181Z,18.90
2017-12-16T00:16:32.165Z,18.34
2017-12-16T00:17:32.755Z,17.07
2017-12-16T00:18:32.750Z,18.92
2017-12-16T00:19:32.142Z,18.10
2017-12-16T00:20:32.141Z,17.81
2017-12-16T00:21:32.761Z,17.99
2017-12-16T00:22:32.118Z,17.92
2017-12-16T00:23:32.749Z,16.88
2017-12-16T00:24:34.752Z,14.72
2017-12-16T00:25:32.079Z,14.90
2017-12-16T00:26:32.085Z,14.91
2017-12-16T00:27:32.747Z,13.76
2017-12-16T00:28:32.040Z,14.23
2017-12-16T00:29:32.044Z,14.67
2017-12-16T00:30:32.751Z,15.12
2017-12-16T00:31:32.018Z,14.97
2017-12-16T00:32:32.751Z,15.26
2017-12-16T00:33:32.018Z,14.40
2017-12-16T00:34:34.755Z,14.29
2017-12-16T00:35:32.747Z,14.82
2017-12-16T00:36:31.962Z,12.94
2017-12-16T00:37:31.964Z,14.10
2017-12-16T00:38:32.748Z,14.49
2017-12-16T00:39:31.938Z,14.45
2017-12-16T00:40:31.919Z,14.45
2017-12-16T00:41:31.912Z,14.11
2017-12-16T00:42:32.754Z,13.59
2017-12-16T00:43:31.905Z,16.01
2017-12-16T00:44:31.897Z,16.84
2017-12-16T00:45:32.757Z,14.30
2017-12-16T00:46:31.865Z,12.72
2017-12-16T00:47:31.851Z,11.70
2017-12-16T00:48:31.851Z,12.92
2017-12-16T00:49:31.836Z,14.23
2017-12-16T00:50:32.750Z,13.64
2017-12-16T00:51:31.813Z,12.56
2017-12-16T00:52:31.808Z,13.29
2017-12-16T00:53:31.798Z,13.94
2017-12-16T00:54:31.779Z,14.70
2017-12-16T00:55:32.768Z,14.42
2017-12-16T00:56:32.757Z,12.55
2017-12-16T00:57:31.764Z,13.56
2017-12-16T00:58:34.259Z,14.12
2017-12-16T00:59:31.724Z,15.31
2017-12-16T01:00:31.736Z,12.90
2017-12-16T01:01:31.714Z,13.69
2017-12-16T01:02:31.704Z,13.71
2017-12-16T01:03:31.701Z,13.14
2017-12-16T01:04:31.687Z,13.65
2017-12-16T01:05:31.676Z,14.03
2017-12-16T01:06:31.656Z,12.80
2017-12-16T01:07:31.654Z,13.97
2017-12-16T01:08:31.652Z,15.27
2017-12-16T01:09:31.636Z,14.18
2017-12-16T01:10:31.630Z,13.70
2017-12-16T01:11:31.618Z,13.83
2017-12-16T01:12:31.602Z,13.68
2017-12-16T01:13:40.236Z,15.29
2017-12-16T01:16:22.650Z,13.79
2017-12-16T01:17:14.967Z,15.19
2017-12-16T01:19:58.339Z,13.11
2017-12-16T01:20:58.304Z,14.61
2017-12-16T01:23:42.762Z,14.71
2017-12-16T01:24:42.642Z,13.42
2017-12-16T01:27:27.100Z,16.09
2017-12-16T01:28:27.003Z,14.56
2017-12-16T01:31:12.895Z,16.34
2017-12-16T01:32:12.856Z,14.42
2017-12-16T01:33:12.842Z,15.65
2017-12-16T01:34:12.833Z,16.70
2017-12-16T01:35:12.819Z,15.00
2017-12-16T01:36:12.810Z,16.08
2017-12-16T01:37:12.798Z,14.51
2017-12-16T01:38:12.788Z,14.57
2017-12-16T01:39:12.784Z,13.52
2017-12-16T01:40:12.771Z,13.92
2017-12-16T01:41:12.751Z,15.38
2017-12-16T01:42:12.755Z,16.30
2017-12-16T01:43:12.737Z,15.08
2017-12-16T01:44:12.731Z,17.51
2017-12-16T01:45:12.723Z,15.24
2017-12-16T01:46:12.714Z,17.64
2017-12-16T01:47:12.716Z,16.04
2017-12-16T01:48:12.693Z,15.87
2017-12-16T01:49:12.682Z,16.19
2017-12-16T01:50:12.671Z,15.25
2017-12-16T01:51:12.663Z,15.79
2017-12-16T01:52:13.446Z,16.80
2017-12-16T01:53:12.637Z,14.27
2017-12-16T01:54:12.629Z,15.53
2017-12-16T01:55:12.614Z,15.85
2017-12-16T01:56:12.607Z,17.06
2017-12-16T01:57:12.596Z,15.42
2017-12-16T01:58:13.437Z,15.54
2017-12-16T01:59:12.587Z,16.80
2017-12-16T02:00:12.572Z,18.13
2017-12-16T02:01:12.565Z,14.50
2017-12-16T02:02:12.551Z,15.79
2017-12-16T02:03:12.543Z,16.08
2017-12-16T02:04:12.532Z,15.70
2017-12-16T02:05:12.522Z,17.84
2017-12-16T02:06:12.514Z,16.16
2017-12-16T02:07:12.502Z,15.60
2017-12-16T02:08:12.493Z,14.94
2017-12-16T02:09:13.444Z,16.62
2017-12-16T02:10:13.442Z,15.65
2017-12-16T02:11:12.455Z,16.33
2017-12-16T02:12:13.445Z,14.29
2017-12-16T02:13:12.443Z,15.91
2017-12-16T02:14:12.428Z,17.40
2017-12-16T02:15:12.426Z,16.22
2017-12-16T02:16:12.944Z,17.36
2017-12-16T02:17:12.403Z,16.46
2017-12-16T02:18:12.392Z,15.98
2017-12-16T02:19:12.378Z,15.77
2017-12-16T02:20:12.373Z,15.26
2017-12-16T02:21:12.358Z,17.01
2017-12-16T02:22:14.944Z,16.64
2017-12-16T02:23:12.358Z,18.03
2017-12-16T02:24:12.331Z,18.32
2017-12-16T02:25:12.320Z,17.75
2017-12-16T02:26:12.314Z,15.30
2017-12-16T02:27:12.304Z,16.78
2017-12-16T02:28:12.290Z,15.26
2017-12-16T02:29:12.285Z,16.16
2017-12-16T02:30:12.273Z,17.69
2017-12-16T02:31:12.268Z,16.22
2017-12-16T02:32:12.252Z,15.00
2017-12-16T02:33:12.234Z,17.79
2017-12-16T02:34:14.950Z,18.70
2017-12-16T02:35:12.216Z,19.31
2017-12-16T02:36:12.210Z,21.58
2017-12-16T02:37:12.204Z,20.48
2017-12-16T02:38:12.189Z,24.44
2017-12-16T02:39:12.182Z,31.76
2017-12-16T02:40:12.956Z,22.81
2017-12-16T02:41:12.166Z,23.78
2017-12-16T02:42:12.152Z,23.53
2017-12-16T02:43:12.144Z,25.60
2017-12-16T02:44:12.134Z,22.98
2017-12-16T02:45:12.126Z,23.84
2017-12-16T02:46:12.110Z,23.92
2017-12-16T02:47:12.106Z,18.12
2017-12-16T02:48:12.092Z,23.08
2017-12-16T02:49:12.082Z,30.46
2017-12-16T02:50:12.071Z,25.35
2017-12-16T02:51:12.062Z,26.19
2017-12-16T02:52:12.960Z,24.86
2017-12-16T02:53:12.042Z,27.08
2017-12-16T02:54:12.035Z,25.32
2017-12-16T02:55:12.035Z,28.10
2017-12-16T02:56:12.013Z,27.96
2017-12-16T02:57:12.001Z,24.70
2017-12-16T02:58:12.960Z,27.12
2017-12-16T02:59:11.981Z,32.10
2017-12-16T03:00:11.973Z,29.05
2017-12-16T03:01:11.964Z,29.35
2017-12-16T03:02:11.953Z,28.78
2017-12-16T03:03:11.958Z,28.47
2017-12-16T03:04:12.460Z,27.37
2017-12-16T03:05:14.455Z,28.96
2017-12-16T03:06:11.910Z,24.28
2017-12-16T03:07:11.905Z,24.45
2017-12-16T03:08:11.890Z,23.96
2017-12-16T03:09:11.944Z,22.88
2017-12-16T03:10:12.463Z,20.98
2017-12-16T03:11:11.865Z,19.41
2017-12-16T03:12:11.858Z,19.15
2017-12-16T03:13:11.844Z,19.63
2017-12-16T03:14:11.836Z,18.22
2017-12-16T03:15:11.828Z,17.60
2017-12-16T03:16:11.811Z,16.32
2017-12-16T03:17:11.801Z,16.80
2017-12-16T03:18:11.797Z,18.30
2017-12-16T03:19:11.788Z,19.90
2017-12-16T03:20:11.777Z,19.42
2017-12-16T03:21:11.765Z,18.23
2017-12-16T03:22:14.464Z,18.49
2017-12-16T03:23:12.467Z,19.62
2017-12-16T03:24:11.737Z,17.40
2017-12-16T03:25:11.732Z,20.24
2017-12-16T03:26:11.714Z,18.58
2017-12-16T03:27:11.706Z,18.64
2017-12-16T03:28:12.467Z,20.81
2017-12-16T03:29:11.681Z,17.76
2017-12-16T03:30:11.663Z,20.40
2017-12-16T03:31:11.669Z,20.44
2017-12-16T03:32:11.649Z,19.82
2017-12-16T03:33:11.656Z,20.64
2017-12-16T03:34:11.634Z,19.16
2017-12-16T03:35:11.624Z,20.54
2017-12-16T03:36:11.636Z,20.68
2017-12-16T03:37:11.605Z,21.53
2017-12-16T03:38:11.595Z,25.55
2017-12-16T03:39:12.474Z,26.24
2017-12-16T03:40:11.580Z,23.24
2017-12-16T03:41:11.565Z,22.87
2017-12-16T03:42:11.557Z,22.24
2017-12-16T03:43:12.465Z,22.49
2017-12-16T03:44:11.536Z,22.19
2017-12-16T03:45:11.524Z,23.78
2017-12-16T03:46:11.518Z,24.22
2017-12-16T03:47:11.504Z,21.64
2017-12-16T03:48:11.494Z,20.78
2017-12-16T03:49:11.485Z,24.39
2017-12-16T03:50:11.474Z,24.78
2017-12-16T03:51:11.463Z,22.44
2017-12-16T03:52:11.460Z,21.10
2017-12-16T03:53:11.446Z,22.98
2017-12-16T03:54:11.978Z,25.25
2017-12-16T03:55:11.424Z,23.68
2017-12-16T03:56:11.409Z,22.67
2017-12-16T03:57:11.410Z,24.38
2017-12-16T03:58:11.416Z,26.27
2017-12-16T03:59:11.378Z,24.69
2017-12-16T04:00:11.374Z,23.98
2017-12-16T04:01:11.374Z,24.22
2017-12-16T04:02:11.345Z,21.52
2017-12-16T04:03:11.339Z,25.32
2017-12-16T04:04:11.335Z,23.40
2017-12-16T04:05:11.327Z,24.57
2017-12-16T04:06:11.972Z,22.63
2017-12-16T04:07:11.304Z,24.56
2017-12-16T04:08:11.984Z,24.71
2017-12-16T04:09:11.288Z,22.61
2017-12-16T04:10:11.275Z,30.62
2017-12-16T04:11:11.271Z,24.05
2017-12-16T04:12:11.252Z,23.16
2017-12-16T04:13:13.985Z,22.80
2017-12-16T04:14:11.241Z,23.91
2017-12-16T04:15:11.237Z,23.70
2017-12-16T04:16:11.213Z,25.32
2017-12-16T04:17:11.210Z,23.47
2017-12-16T04:18:11.191Z,25.79
2017-12-16T04:19:11.184Z,28.28
2017-12-16T04:20:11.174Z,29.89
2017-12-16T04:21:11.160Z,27.24
2017-12-16T04:22:11.153Z,29.57
2017-12-16T04:23:11.140Z,26.22
2017-12-16T04:24:13.994Z,32.26
2017-12-16T04:25:11.127Z,28.27
2017-12-16T04:26:11.116Z,34.52
2017-12-16T04:27:11.106Z,31.36
2017-12-16T04:28:11.134Z,29.07
2017-12-16T04:29:11.085Z,29.10
2017-12-16T04:30:11.080Z,30.84
2017-12-16T04:31:11.995Z,32.50
2017-12-16T04:32:11.051Z,26.86
2017-12-16T04:33:11.044Z,27.76
2017-12-16T04:34:11.037Z,26.43
2017-12-16T04:35:11.024Z,27.52
2017-12-16T04:36:11.013Z,28.87
2017-12-16T04:37:11.979Z,28.80
2017-12-16T04:38:11.984Z,27.19
2017-12-16T04:39:10.986Z,32.13
2017-12-16T04:40:10.972Z,31.83
2017-12-16T04:41:10.969Z,29.60
2017-12-16T04:42:10.957Z,29.33
2017-12-16T04:43:10.953Z,27.62
2017-12-16T04:44:10.937Z,29.24
2017-12-16T04:45:10.928Z,28.26
2017-12-16T04:46:10.921Z,28.26
2017-12-16T04:47:10.916Z,29.76
2017-12-16T04:48:10.899Z,29.60
2017-12-16T04:49:10.885Z,30.89
2017-12-16T04:50:10.879Z,27.70
2017-12-16T04:51:10.869Z,29.26
2017-12-16T04:52:11.492Z,28.31
2017-12-16T04:53:10.843Z,30.83
2017-12-16T04:54:10.835Z,34.31
2017-12-16T04:55:10.829Z,31.34
2017-12-16T04:56:10.823Z,30.12
2017-12-16T04:57:10.811Z,31.41
2017-12-16T04:58:11.494Z,31.89
2017-12-16T04:59:10.787Z,31.82
2017-12-16T05:00:10.778Z,30.88
2017-12-16T05:01:10.769Z,29.48
2017-12-16T05:02:10.758Z,28.60
2017-12-16T05:03:10.761Z,30.41
2017-12-16T05:04:11.499Z,32.65
2017-12-16T05:05:10.723Z,29.84
2017-12-16T05:06:10.715Z,32.84
2017-12-16T05:07:10.707Z,31.49
2017-12-16T05:08:10.697Z,29.46
2017-12-16T05:09:10.687Z,30.62
2017-12-16T05:10:10.676Z,33.44
2017-12-16T05:11:10.670Z,29.17
2017-12-16T05:12:10.658Z,34.87
2017-12-16T05:13:10.649Z,33.05
2017-12-16T05:14:10.651Z,30.16
2017-12-16T05:15:10.635Z,32.09
2017-12-16T05:16:10.621Z,27.68
2017-12-16T05:17:10.612Z,34.01
2017-12-16T05:18:10.626Z,33.38
2017-12-16T05:19:10.585Z,34.50
2017-12-16T05:20:10.577Z,31.64
2017-12-16T05:21:10.566Z,30.58
2017-12-16T05:22:11.500Z,30.84
2017-12-16T05:23:10.555Z,33.04
2017-12-16T05:24:10.538Z,33.50
2017-12-16T05:25:10.529Z,31.93
2017-12-16T05:26:10.527Z,33.03
2017-12-16T05:27:10.516Z,29.52
2017-12-16T05:28:10.498Z,29.88
2017-12-16T05:29:10.490Z,30.97
2017-12-16T05:30:10.485Z,30.52
2017-12-16T05:31:10.468Z,31.84
2017-12-16T05:32:10.460Z,30.51
2017-12-16T05:33:10.447Z,30.40
2017-12-16T05:34:11.001Z,33.38
2017-12-16T05:35:10.435Z,31.97
2017-12-16T05:36:10.425Z,34.59
2017-12-16T05:37:10.406Z,31.48
2017-12-16T05:38:10.406Z,31.50
2017-12-16T05:39:17.009Z,32.30
2017-12-16T05:40:10.386Z,32.65
2017-12-16T05:41:13.001Z,31.35
2017-12-16T05:42:10.359Z,30.64
2017-12-16T05:43:10.352Z,32.88
2017-12-16T05:44:10.343Z,30.44
2017-12-16T05:45:10.332Z,32.71
2017-12-16T05:46:11.006Z,32.84
2017-12-16T05:47:10.315Z,31.77
2017-12-16T05:48:10.298Z,32.48
2017-12-16T05:49:10.283Z,31.87
2017-12-16T05:50:10.281Z,30.90
2017-12-16T05:51:10.282Z,32.11
2017-12-16T05:52:11.013Z,31.69
2017-12-16T05:53:10.267Z,30.74
2017-12-16T05:54:10.253Z,32.08
2017-12-16T05:55:10.238Z,33.26
2017-12-16T05:56:10.230Z,31.91
2017-12-16T05:57:10.215Z,33.26
2017-12-16T05:58:13.069Z,35.02
2017-12-16T05:59:11.010Z,30.59
2017-12-16T06:00:10.183Z,32.91
2017-12-16T06:01:11.460Z,33.06
2017-12-16T06:02:10.170Z,30.42
2017-12-16T06:03:10.150Z,31.60
2017-12-16T06:04:11.017Z,33.49
2017-12-16T06:05:13.016Z,33.18
2017-12-16T06:06:11.035Z,31.39
2017-12-16T06:07:10.126Z,32.52
2017-12-16T06:08:10.115Z,34.06
2017-12-16T06:09:10.097Z,33.21
2017-12-16T06:10:11.017Z,35.48
2017-12-16T06:11:11.020Z,36.73
2017-12-16T06:12:10.067Z,36.23
2017-12-16T06:13:10.064Z,37.74
2017-12-16T06:14:10.053Z,38.62
2017-12-16T06:15:10.040Z,37.78
2017-12-16T06:16:10.028Z,36.02
2017-12-16T06:17:10.027Z,36.74
2017-12-16T06:18:10.011Z,37.09
2017-12-16T06:19:10.014Z,37.46
2017-12-16T06:20:09.990Z,37.17
2017-12-16T06:21:09.984Z,37.77
2017-12-16T06:22:09.971Z,36.87
2017-12-16T06:23:09.973Z,39.08
2017-12-16T06:24:09.954Z,43.55
2017-12-16T06:25:09.941Z,39.25
2017-12-16T06:26:09.941Z,41.09
2017-12-16T06:27:09.926Z,42.14
2017-12-16T06:28:09.905Z,44.11
2017-12-16T06:29:09.902Z,44.96
2017-12-16T06:30:09.890Z,45.69
2017-12-16T06:31:09.882Z,44.46
2017-12-16T06:32:10.527Z,44.14
2017-12-16T06:33:10.531Z,48.89
2017-12-16T06:34:09.873Z,46.61
2017-12-16T06:35:10.525Z,51.03
2017-12-16T06:36:09.840Z,48.47
2017-12-16T06:37:09.827Z,51.60
2017-12-16T06:38:09.819Z,52.65
2017-12-16T06:39:09.822Z,53.16
2017-12-16T06:40:09.796Z,50.86
2017-12-16T06:41:10.526Z,51.50
2017-12-16T06:42:09.775Z,52.94
2017-12-16T06:43:09.769Z,53.00
2017-12-16T06:44:09.761Z,54.80
2017-12-16T06:45:09.750Z,50.94
2017-12-16T06:46:09.732Z,56.20
2017-12-16T06:47:10.530Z,56.20
2017-12-16T06:48:09.722Z,52.26
2017-12-16T06:49:09.710Z,51.99
2017-12-16T06:50:09.706Z,58.21
2017-12-16T06:51:10.550Z,56.50
2017-12-16T06:52:09.685Z,56.50
2017-12-16T06:53:09.662Z,57.28
2017-12-16T06:54:09.669Z,57.18
2017-12-16T06:55:10.537Z,57.96
2017-12-16T06:56:10.537Z,54.24
2017-12-16T06:57:10.526Z,55.06
2017-12-16T06:58:09.619Z,54.65
2017-12-16T06:59:12.523Z,59.80
2017-12-16T07:00:09.595Z,61.10
2017-12-16T07:01:09.583Z,57.56
2017-12-16T07:02:09.581Z,54.27
2017-12-16T07:03:09.574Z,54.03
2017-12-16T07:04:09.568Z,51.78
2017-12-16T07:05:09.555Z,54.74
2017-12-16T07:06:09.547Z,53.65
2017-12-16T07:07:09.534Z,57.03
2017-12-16T07:08:09.524Z,53.33
2017-12-16T07:09:09.513Z,55.93
2017-12-16T07:10:09.498Z,56.55
2017-12-16T07:11:09.497Z,52.20
2017-12-16T07:12:10.033Z,51.97
2017-12-16T07:13:09.479Z,55.06
2017-12-16T07:14:09.459Z,50.05
2017-12-16T07:15:09.461Z,56.96
2017-12-16T07:16:09.444Z,53.47
2017-12-16T07:17:09.433Z,49.86
2017-12-16T07:18:09.427Z,51.66
2017-12-16T07:19:09.418Z,51.20
2017-12-16T07:20:09.405Z,51.96
2017-12-16T07:21:09.393Z,54.81
2017-12-16T07:22:09.386Z,53.79
2017-12-16T07:23:09.376Z,55.75
2017-12-16T07:24:09.370Z,57.80
2017-12-16T07:25:09.349Z,54.71
2017-12-16T07:26:09.348Z,58.43
2017-12-16T07:27:09.349Z,57.46
2017-12-16T07:28:09.327Z,51.07
2017-12-16T07:29:09.316Z,55.01
2017-12-16T07:30:09.318Z,55.38
2017-12-16T07:31:09.290Z,52.63
2017-12-16T07:32:09.295Z,56.07
2017-12-16T07:33:09.277Z,53.45
2017-12-16T07:34:09.312Z,57.40
2017-12-16T07:35:10.068Z,53.54
2017-12-16T07:36:09.247Z,55.94
2017-12-16T07:37:09.242Z,53.46
2017-12-16T07:38:09.230Z,51.37
2017-12-16T07:39:09.218Z,54.79
2017-12-16T07:40:09.227Z,52.80
2017-12-16T07:41:09.208Z,50.26
2017-12-16T07:42:09.195Z,47.16
2017-12-16T07:43:09.184Z,49.08
2017-12-16T07:44:09.182Z,48.30
2017-12-16T07:45:09.165Z,49.02
2017-12-16T07:46:09.157Z,48.86
2017-12-16T07:47:09.161Z,50.07
2017-12-16T07:48:10.047Z,49.76
2017-12-16T07:49:09.117Z,48.65
2017-12-16T07:50:09.112Z,49.52
2017-12-16T07:51:09.107Z,50.71
2017-12-16T07:52:09.092Z,50.08
2017-12-16T07:53:09.087Z,52.65
2017-12-16T07:54:10.047Z,49.65
2017-12-16T07:55:10.047Z,51.16
2017-12-16T07:56:10.064Z,54.24
2017-12-16T07:57:09.044Z,53.24
2017-12-16T07:58:09.042Z,56.00
2017-12-16T07:59:09.032Z,55.18
2017-12-16T08:00:09.554Z,57.46
2017-12-16T08:01:09.003Z,57.65
2017-12-16T08:02:09.007Z,54.67
2017-12-16T08:03:08.990Z,55.14
2017-12-16T08:04:08.977Z,56.54
2017-12-16T08:05:08.968Z,58.62
2017-12-16T08:06:08.961Z,56.05
2017-12-16T08:07:08.949Z,61.53
2017-12-16T08:08:08.940Z,60.13
2017-12-16T08:09:08.930Z,59.94
2017-12-16T08:10:08.914Z,62.30
2017-12-16T08:11:08.910Z,60.42
2017-12-16T08:12:09.544Z,60.16
2017-12-16T08:13:08.889Z,62.45
2017-12-16T08:14:08.880Z,65.93
2017-12-16T08:15:08.871Z,62.22
2017-12-16T08:16:08.856Z,61.68
2017-12-16T08:17:08.861Z,61.83
2017-12-16T08:18:08.847Z,67.10
2017-12-16T08:19:08.837Z,63.36
2017-12-16T08:20:08.818Z,66.50
2017-12-16T08:21:08.817Z,67.08
2017-12-16T08:22:08.807Z,61.59
2017-12-16T08:23:08.799Z,64.15
2017-12-16T08:24:09.557Z,64.59
2017-12-16T08:25:08.771Z,61.78
2017-12-16T08:26:09.567Z,65.51
2017-12-16T08:27:09.549Z,63.66
2017-12-16T08:28:08.746Z,62.33
2017-12-16T08:29:08.737Z,66.34
2017-12-16T08:30:09.558Z,61.82
2017-12-16T08:31:09.556Z,64.06
2017-12-16T08:32:08.708Z,64.09
2017-12-16T08:33:08.698Z,65.17
2017-12-16T08:34:08.695Z,69.02
2017-12-16T08:35:08.681Z,69.14
2017-12-16T08:36:09.560Z,68.66
2017-12-16T08:37:09.561Z,65.90
2017-12-16T08:38:08.650Z,70.48
2017-12-16T08:39:09.576Z,66.03
2017-12-16T08:40:08.635Z,65.11
2017-12-16T08:41:08.633Z,71.00
2017-12-16T08:42:08.617Z,69.04
2017-12-16T08:43:08.607Z,65.34
2017-12-16T08:44:08.598Z,70.62
2017-12-16T08:45:08.591Z,70.98
2017-12-16T08:46:08.573Z,72.55
2017-12-16T08:47:08.589Z,68.65
2017-12-16T08:48:08.555Z,72.12
2017-12-16T08:49:13.172Z,73.75
2017-12-16T08:50:08.538Z,71.54
2017-12-16T08:51:08.533Z,70.73
2017-12-16T08:52:08.517Z,76.53
2017-12-16T08:53:08.533Z,76.89
2017-12-16T08:54:08.494Z,73.08
2017-12-16T08:55:08.500Z,70.18
2017-12-16T08:56:08.484Z,72.57
2017-12-16T08:57:08.469Z,76.62
2017-12-16T08:58:08.465Z,79.30
2017-12-16T08:59:08.463Z,70.95
2017-12-16T09:00:08.439Z,70.30
2017-12-16T09:01:09.067Z,72.46
2017-12-16T09:02:09.069Z,66.68
2017-12-16T09:03:08.426Z,76.15
2017-12-16T09:04:08.413Z,74.02
2017-12-16T09:05:08.394Z,73.44
2017-12-16T09:06:08.384Z,69.51
2017-12-16T09:07:08.405Z,66.18
2017-12-16T09:08:08.417Z,70.51
2017-12-16T09:09:08.359Z,70.76
2017-12-16T09:10:08.351Z,73.33
2017-12-16T09:11:08.331Z,75.78
2017-12-16T09:12:09.078Z,71.68
2017-12-16T09:13:09.074Z,72.67
2017-12-16T09:14:08.326Z,73.99
2017-12-16T09:15:08.326Z,71.35
2017-12-16T09:16:08.290Z,70.70
2017-12-16T09:17:08.287Z,71.34
2017-12-16T09:18:08.271Z,72.28
2017-12-16T09:19:08.270Z,68.53
2017-12-16T09:20:08.638Z,75.07
2017-12-16T09:21:08.272Z,69.05
2017-12-16T09:21:21.320Z,2.73
2017-12-16T09:23:08.228Z,69.82
2017-12-16T09:24:08.320Z,68.86
2017-12-16T09:25:08.213Z,63.96
2017-12-16T09:26:08.474Z,66.20
2017-12-16T09:27:09.070Z,71.71
2017-12-16T09:28:08.188Z,72.45
2017-12-16T09:29:09.076Z,73.84
2017-12-16T09:30:08.708Z,71.26
2017-12-16T09:31:08.169Z,69.85
2017-12-16T09:32:08.150Z,65.26
2017-12-16T09:33:08.143Z,71.04
2017-12-16T09:34:08.141Z,70.43
2017-12-16T09:35:08.132Z,66.32
2017-12-16T09:36:08.107Z,70.46
2017-12-16T09:37:08.096Z,63.81
2017-12-16T09:38:08.101Z,61.46
2017-12-16T09:39:08.084Z,62.61
2017-12-16T09:40:08.094Z,60.23
2017-12-16T09:41:08.074Z,60.31
2017-12-16T09:42:08.064Z,63.64
2017-12-16T09:43:08.599Z,58.80
2017-12-16T09:44:08.042Z,55.76
2017-12-16T09:45:08.588Z,59.59
2017-12-16T09:46:08.023Z,61.74
2017-12-16T09:47:08.013Z,59.90
2017-12-16T09:48:08.012Z,54.54
2017-12-16T09:49:07.997Z,50.51
2017-12-16T09:50:07.991Z,54.24
2017-12-16T09:51:07.988Z,52.15
2017-12-16T09:52:10.587Z,53.56
2017-12-16T09:53:07.970Z,58.22
2017-12-16T09:54:07.958Z,51.84
2017-12-16T09:55:07.951Z,53.80
2017-12-16T09:56:07.956Z,49.72
2017-12-16T09:57:18.822Z,49.64
2017-12-16T10:00:31.039Z,49.54
2017-12-16T10:03:34.492Z,47.65
2017-12-16T10:06:37.835Z,49.00
2017-12-16T10:07:37.759Z,49.22
2017-12-16T10:10:22.205Z,46.22
2017-12-16T10:11:22.088Z,42.19
2017-12-16T10:14:07.050Z,44.66
2017-12-16T10:15:05.456Z,45.51
2017-12-16T10:17:49.876Z,46.51
2017-12-16T10:18:50.316Z,46.33
2017-12-16T10:21:40.751Z,43.28
2017-12-16T10:22:34.164Z,42.98
2017-12-16T10:25:18.544Z,40.46
2017-12-16T10:26:18.510Z,42.20
2017-12-16T10:29:01.904Z,40.04
2017-12-16T10:30:01.927Z,37.54
2017-12-16T10:32:46.262Z,38.90
2017-12-16T10:33:46.628Z,35.96
2017-12-16T10:36:30.592Z,40.16
2017-12-16T10:37:30.562Z,42.19
2017-12-16T10:40:13.940Z,35.41
2017-12-16T10:41:13.916Z,37.70
2017-12-16T10:42:13.915Z,39.55
2017-12-16T10:43:20.934Z,36.92
2017-12-16T10:44:16.823Z,37.16
2017-12-16T10:45:17.335Z,38.03
2017-12-16T10:46:42.392Z,39.50
2017-12-16T10:47:29.244Z,41.34
2017-12-16T10:48:29.203Z,41.26
2017-12-16T10:49:29.990Z,39.61
2017-12-16T10:50:29.208Z,35.78
2017-12-16T10:51:29.180Z,38.26
2017-12-16T10:52:29.159Z,39.10
2017-12-16T10:53:29.984Z,34.84
2017-12-16T10:54:29.151Z,39.64
2017-12-16T10:55:29.143Z,37.08
2017-12-16T10:56:29.139Z,37.35
2017-12-16T10:57:29.128Z,40.72
2017-12-16T10:58:29.118Z,40.50
2017-12-16T10:59:29.107Z,34.52
2017-12-16T11:00:29.099Z,32.35
2017-12-16T11:01:29.092Z,32.32
2017-12-16T11:02:29.083Z,29.86
2017-12-16T11:03:29.071Z,32.61
2017-12-16T11:04:29.068Z,34.38
2017-12-16T11:05:29.062Z,30.06
2017-12-16T11:06:29.046Z,30.02
2017-12-16T11:07:29.036Z,28.10
2017-12-16T11:08:29.030Z,26.45
2017-12-16T11:09:31.997Z,27.92
2017-12-16T11:10:29.022Z,29.45
2017-12-16T11:11:29.996Z,31.41
2017-12-16T11:12:28.996Z,28.69
2017-12-16T11:13:28.986Z,31.22
2017-12-16T11:14:29.550Z,30.00
2017-12-16T11:15:28.978Z,29.48
2017-12-16T11:16:28.978Z,27.24
2017-12-16T11:17:28.961Z,27.79
2017-12-16T11:18:28.953Z,28.40
2017-12-16T11:19:28.942Z,26.23
2017-12-16T11:20:28.926Z,23.78
2017-12-16T11:21:28.923Z,24.32
2017-12-16T11:22:28.917Z,25.86
2017-12-16T11:23:28.907Z,26.70
2017-12-16T11:24:29.509Z,26.44
2017-12-16T11:25:28.892Z,27.74
2017-12-16T11:26:28.892Z,24.40
2017-12-16T11:27:28.884Z,23.92
2017-12-16T11:28:28.875Z,27.96
2017-12-16T11:29:28.863Z,21.27
2017-12-16T11:30:28.859Z,22.27
2017-12-16T11:31:29.507Z,21.82
2017-12-16T11:32:28.842Z,23.12
2017-12-16T11:33:29.510Z,21.60
2017-12-16T11:34:28.813Z,22.62
2017-12-16T11:35:28.819Z,23.46
2017-12-16T11:36:28.812Z,19.82
2017-12-16T11:37:28.829Z,22.53
2017-12-16T11:38:28.793Z,21.44
2017-12-16T11:39:28.784Z,22.47
2017-12-16T11:40:28.778Z,21.35
2017-12-16T11:41:28.765Z,22.76
2017-12-16T11:42:28.771Z,24.80
2017-12-16T11:43:28.748Z,26.65
2017-12-16T11:44:29.515Z,23.48
2017-12-16T11:45:29.510Z,24.28
2017-12-16T11:46:28.732Z,22.90
2017-12-16T11:47:28.711Z,24.25
2017-12-16T11:48:28.703Z,24.99
2017-12-16T11:49:29.511Z,24.20
2017-12-16T11:50:28.942Z,21.48
2017-12-16T11:51:28.687Z,21.29
2017-12-16T11:52:28.688Z,22.64
2017-12-16T11:53:28.676Z,18.56
2017-12-16T11:54:28.662Z,20.68
2017-12-16T11:55:28.672Z,22.49
2017-12-16T11:56:28.647Z,20.21
2017-12-16T11:57:28.643Z,21.19
2017-12-16T11:58:28.972Z,17.93
2017-12-16T11:59:28.634Z,17.48
2017-12-16T12:00:28.626Z,17.00
2017-12-16T12:01:28.607Z,18.09
2017-12-16T12:02:28.598Z,20.13
2017-12-16T12:03:28.603Z,18.45
2017-12-16T12:04:28.584Z,16.79
2017-12-16T12:05:29.509Z,20.04
2017-12-16T12:06:28.563Z,19.48
2017-12-16T12:07:28.564Z,17.31
2017-12-16T12:08:28.555Z,17.82
2017-12-16T12:09:28.561Z,18.71
2017-12-16T12:10:28.544Z,20.94
2017-12-16T12:11:28.528Z,19.47
2017-12-16T12:12:28.534Z,17.92
2017-12-16T12:13:28.521Z,20.02
2017-12-16T12:14:28.510Z,20.13
2017-12-16T12:15:28.501Z,18.74
2017-12-16T12:16:28.492Z,21.00
2017-12-16T12:17:28.551Z,19.15
2017-12-16T12:18:28.481Z,21.15
2017-12-16T12:19:28.771Z,18.82
2017-12-16T12:20:28.461Z,20.00
2017-12-16T12:21:28.450Z,21.72
2017-12-16T12:22:28.445Z,22.12
2017-12-16T12:23:28.448Z,23.33
2017-12-16T12:24:28.432Z,21.00
2017-12-16T12:25:28.427Z,20.30
2017-12-16T12:26:28.422Z,20.29
2017-12-16T12:27:28.662Z,17.81
2017-12-16T12:28:28.423Z,18.57
2017-12-16T12:29:28.397Z,16.89
2017-12-16T12:30:28.396Z,18.92
2017-12-16T12:31:28.385Z,19.43
2017-12-16T12:32:28.372Z,23.37
2017-12-16T12:33:29.029Z,19.38
2017-12-16T12:34:28.354Z,17.02
2017-12-16T12:35:29.034Z,22.15
2017-12-16T12:36:28.339Z,21.58
2017-12-16T12:37:28.332Z,16.60
2017-12-16T12:38:31.023Z,17.94
2017-12-16T12:39:29.042Z,17.19
2017-12-16T12:40:28.300Z,18.12
2017-12-16T12:41:28.300Z,17.48
2017-12-16T12:42:28.294Z,22.18
2017-12-16T12:43:28.276Z,24.40
2017-12-16T12:44:28.278Z,18.86
2017-12-16T12:45:28.262Z,21.44
2017-12-16T12:46:28.254Z,18.08
2017-12-16T12:47:28.252Z,18.55
2017-12-16T12:48:28.253Z,19.40
2017-12-16T12:49:28.242Z,20.50
2017-12-16T12:50:28.235Z,20.65
2017-12-16T12:51:28.219Z,17.48
2017-12-16T12:52:28.211Z,19.90
2017-12-16T12:53:28.226Z,19.05
2017-12-16T12:54:28.202Z,20.38
2017-12-16T12:55:28.187Z,18.75
2017-12-16T12:56:28.183Z,13.87
2017-12-16T12:57:29.036Z,19.31
2017-12-16T12:58:28.169Z,17.90
2017-12-16T12:59:28.153Z,19.30
2017-12-16T13:00:28.157Z,17.11
2017-12-16T13:01:28.142Z,16.80
2017-12-16T13:02:28.137Z,19.73
2017-12-16T13:03:28.126Z,19.97
2017-12-16T13:04:29.042Z,19.89
2017-12-16T13:05:28.117Z,15.08
2017-12-16T13:06:28.099Z,18.64
2017-12-16T13:07:29.043Z,16.69
2017-12-16T13:08:28.088Z,15.67
2017-12-16T13:09:28.071Z,17.92
2017-12-16T13:10:28.069Z,17.04
2017-12-16T13:11:28.058Z,18.53
2017-12-16T13:12:28.053Z,19.87
2017-12-16T13:13:28.045Z,18.62
2017-12-16T13:14:28.045Z,16.80
2017-12-16T13:15:28.030Z,17.65
2017-12-16T13:16:28.019Z,17.15
2017-12-16T13:17:28.014Z,18.64
2017-12-16T13:18:28.545Z,16.57
2017-12-16T13:19:27.999Z,18.54
2017-12-16T13:20:27.993Z,15.38
2017-12-16T13:21:27.990Z,17.77
2017-12-16T13:22:27.984Z,16.39
2017-12-16T13:23:27.962Z,17.58